Time;durP1;ratioP1;P1;durP2;ratioP2;P2;SDS_P1;SDS_P2;PMS_P1;PMS_P2;Temp;Humidity;BMP_temperature;BMP_pressure;BME280_temperature;BME280_humidity;BME280_pressure;Samples;Min_cycle;Max_cycle;Signal;HPM_P1;HPM_P2
2021/08/22 00:01:37;;;;;;;12.50;11.27;;;;;;;;;;5046277;28;20600;-77
2021/08/22 00:04:02;;;;;;;12.50;11.20;;;;;;;;;;5030729;28;20213;-77
2021/08/22 00:06:27;;;;;;;12.32;11.02;;;;;;;;;;5052654;28;20470;-78
2021/08/22 00:08:52;;;;;;;12.52;11.32;;;;;;;;;;5051155;28;20209;-77
2021/08/22 00:11:17;;;;;;;13.10;11.77;;;;;;;;;;5050616;28;20236;-77
2021/08/22 00:13:43;;;;;;;13.10;11.68;;;;;;;;;;5035648;28;20411;-78
2021/08/22 00:16:08;;;;;;;13.63;12.30;;;;;;;;;;5051560;28;20177;-78
2021/08/22 00:18:33;;;;;;;13.77;12.38;;;;;;;;;;5044506;28;20364;-77
2021/08/22 00:20:58;;;;;;;13.53;12.13;;;;;;;;;;5032734;28;20186;-77
2021/08/22 00:23:23;;;;;;;15.25;13.82;;;;;;;;;;5050239;28;21058;-78
2021/08/22 00:25:49;;;;;;;15.23;13.73;;;;;;;;;;5043650;28;20181;-77
2021/08/22 00:28:14;;;;;;;14.57;13.05;;;;;;;;;;5050033;28;20721;-77
2021/08/22 00:30:39;;;;;;;15.57;13.65;;;;;;;;;;5048874;28;20196;-78
2021/08/22 00:33:04;;;;;;;14.43;13.03;;;;;;;;;;5049886;28;20187;-78
2021/08/22 00:35:30;;;;;;;14.52;13.13;;;;;;;;;;5050586;28;20414;-78
2021/08/22 00:37:56;;;;;;;18.90;14.30;;;;;;;;;;5051957;28;20202;-78
2021/08/22 00:40:21;;;;;;;15.82;13.98;;;;;;;;;;5052780;28;20182;-77
2021/08/22 00:42:46;;;;;;;15.02;13.50;;;;;;;;;;5049773;28;20189;-77
2021/08/22 00:45:12;;;;;;;15.05;13.55;;;;;;;;;;5049216;28;20239;-76
2021/08/22 00:47:38;;;;;;;14.93;13.25;;;;;;;;;;5034309;28;20193;-78
2021/08/22 00:50:04;;;;;;;15.75;14.07;;;;;;;;;;5046638;28;20208;-77
2021/08/22 00:52:32;;;;;;;15.27;13.77;;;;;;;;;;5048933;28;20202;-78
2021/08/22 00:54:57;;;;;;;14.20;12.88;;;;;;;;;;5033544;28;20699;-77
2021/08/22 00:57:22;;;;;;;16.10;14.30;;;;;;;;;;5051145;28;20225;-78
2021/08/22 00:59:47;;;;;;;17.67;14.53;;;;;;;;;;5032532;28;20170;-77
2021/08/22 01:02:18;;;;;;;16.38;14.02;;;;;;;;;;5051880;28;20422;-78
2021/08/22 01:04:55;;;;;;;16.73;14.95;;;;;;;;;;5050005;28;20177;-76
2021/08/22 01:07:24;;;;;;;17.77;14.85;;;;;;;;;;5050090;28;20548;-77
2021/08/22 01:09:50;;;;;;;16.52;14.82;;;;;;;;;;5031287;28;20198;-78
2021/08/22 01:12:36;;;;;;;16.00;14.23;;;;;;;;;;5030570;28;20173;-77
2021/08/22 01:15:06;;;;;;;16.13;14.30;;;;;;;;;;5031687;28;20597;-78
2021/08/22 01:17:34;;;;;;;16.58;14.52;;;;;;;;;;5033016;28;20194;-78
2021/08/22 01:19:59;;;;;;;15.60;13.95;;;;;;;;;;5047851;28;20658;-78
2021/08/22 01:22:26;;;;;;;16.35;14.70;;;;;;;;;;5050502;28;20193;-77
2021/08/22 01:24:52;;;;;;;15.70;13.77;;;;;;;;;;5052120;28;20173;-77
2021/08/22 01:27:19;;;;;;;18.48;15.18;;;;;;;;;;5038227;28;20237;-77
2021/08/22 01:29:48;;;;;;;16.75;15.02;;;;;;;;;;5047695;28;20691;-78
2021/08/22 01:32:13;;;;;;;17.75;15.85;;;;;;;;;;5029232;28;20190;-77
2021/08/22 01:34:39;;;;;;;21.67;17.65;;;;;;;;;;5047884;28;20655;-78
2021/08/22 01:37:04;;;;;;;26.02;18.08;;;;;;;;;;5041584;28;20582;-78
2021/08/22 01:39:31;;;;;;;25.20;19.38;;;;;;;;;;5044397;28;20173;-76
2021/08/22 01:41:56;;;;;;;23.13;18.73;;;;;;;;;;5030359;28;20667;-77
2021/08/22 01:44:21;;;;;;;22.52;18.58;;;;;;;;;;5045444;28;20216;-76
2021/08/22 01:46:47;;;;;;;22.50;17.45;;;;;;;;;;5048162;28;20217;-77
2021/08/22 01:49:12;;;;;;;19.13;17.08;;;;;;;;;;5032062;28;20704;-78
2021/08/22 01:51:38;;;;;;;22.88;15.43;;;;;;;;;;5051406;28;20212;-75
2021/08/22 01:54:06;;;;;;;18.75;14.75;;;;;;;;;;5032647;28;20260;-78
2021/08/22 01:56:32;;;;;;;16.90;14.60;;;;;;;;;;5060973;28;20613;-77
2021/08/22 01:58:57;;;;;;;20.67;15.50;;;;;;;;;;5054458;28;20205;-77
2021/08/22 02:01:22;;;;;;;18.08;13.80;;;;;;;;;;5044560;28;20170;-77
2021/08/22 02:03:48;;;;;;;14.73;13.20;;;;;;;;;;5051933;28;20173;-78
2021/08/22 02:06:32;;;;;;;16.02;12.13;;;;;;;;;;5050785;28;20636;-77
2021/08/22 02:09:00;;;;;;;16.08;12.05;;;;;;;;;;5050459;28;20454;-78
2021/08/22 02:11:28;;;;;;;15.30;11.98;;;;;;;;;;5034312;28;20202;-75
2021/08/22 02:13:54;;;;;;;17.38;10.98;;;;;;;;;;5032491;28;20670;-78
2021/08/22 02:16:21;;;;;;;14.50;11.13;;;;;;;;;;5032225;28;20174;-77
2021/08/22 02:18:47;;;;;;;12.70;10.43;;;;;;;;;;5052739;28;20210;-78
2021/08/22 02:21:12;;;;;;;12.25;10.30;;;;;;;;;;5055064;28;20180;-78
2021/08/22 02:23:38;;;;;;;14.05;11.05;;;;;;;;;;5057371;28;20178;-77
2021/08/22 02:26:03;;;;;;;13.05;10.35;;;;;;;;;;5057606;28;20268;-76
2021/08/22 02:28:28;;;;;;;13.07;10.50;;;;;;;;;;5044884;22;20312;-76
2021/08/22 02:30:53;;;;;;;12.23;10.10;;;;;;;;;;5031306;28;20217;-75
2021/08/22 02:33:19;;;;;;;10.80;9.70;;;;;;;;;;5032500;28;20573;-74
2021/08/22 02:35:44;;;;;;;13.43;9.30;;;;;;;;;;5034575;28;20192;-73
2021/08/22 02:38:09;;;;;;;11.63;10.02;;;;;;;;;;5019919;28;20238;-75
2021/08/22 02:40:34;;;;;;;12.13;10.57;;;;;;;;;;5007513;28;20206;-75
2021/08/22 02:42:59;;;;;;;13.73;9.68;;;;;;;;;;5011822;28;20205;-74
2021/08/22 02:45:25;;;;;;;10.48;9.38;;;;;;;;;;5013298;28;20225;-75
2021/08/22 02:47:50;;;;;;;12.55;9.50;;;;;;;;;;5010821;28;20205;-74
2021/08/22 02:50:15;;;;;;;12.35;9.38;;;;;;;;;;5011629;28;20202;-74
2021/08/22 02:52:41;;;;;;;11.50;9.25;;;;;;;;;;5010449;28;20254;-74
2021/08/22 02:55:06;;;;;;;13.10;9.52;;;;;;;;;;5013810;28;20183;-73
2021/08/22 02:57:31;;;;;;;14.60;10.10;;;;;;;;;;5011538;28;20184;-73
2021/08/22 02:59:56;;;;;;;14.90;10.20;;;;;;;;;;5010627;28;20266;-74
2021/08/22 03:02:21;;;;;;;14.00;10.27;;;;;;;;;;5013413;28;20187;-74
2021/08/22 03:04:47;;;;;;;13.38;10.35;;;;;;;;;;5010559;28;20455;-74
2021/08/22 03:07:12;;;;;;;13.03;9.83;;;;;;;;;;5012347;28;20730;-74
2021/08/22 03:09:37;;;;;;;15.27;9.07;;;;;;;;;;5011623;28;20488;-73
2021/08/22 03:12:03;;;;;;;13.52;9.65;;;;;;;;;;5012090;28;20776;-75
2021/08/22 03:14:28;;;;;;;13.38;9.30;;;;;;;;;;5011770;28;20175;-76
2021/08/22 03:16:53;;;;;;;18.70;11.52;;;;;;;;;;5015364;28;20191;-74
2021/08/22 03:19:18;;;;;;;20.15;12.30;;;;;;;;;;5010041;28;20648;-74
2021/08/22 03:21:45;;;;;;;12.98;10.40;;;;;;;;;;5012241;28;20183;-74
2021/08/22 03:24:11;;;;;;;19.17;12.32;;;;;;;;;;5011543;28;20266;-74
2021/08/22 03:26:36;;;;;;;17.75;11.95;;;;;;;;;;5013081;28;20206;-73
2021/08/22 03:29:02;;;;;;;17.90;13.00;;;;;;;;;;5010171;28;20273;-75
2021/08/22 03:31:27;;;;;;;22.10;14.55;;;;;;;;;;5012565;28;20696;-76
2021/08/22 03:33:52;;;;;;;22.65;14.57;;;;;;;;;;5012723;28;20317;-75
2021/08/22 03:36:18;;;;;;;20.83;14.45;;;;;;;;;;5011462;28;20260;-71
2021/08/22 03:38:44;;;;;;;24.20;17.50;;;;;;;;;;5021823;28;20676;-74
2021/08/22 03:41:09;;;;;;;21.23;14.98;;;;;;;;;;5007034;28;20278;-74
2021/08/22 03:43:34;;;;;;;24.38;15.80;;;;;;;;;;5011892;28;20676;-74
2021/08/22 03:45:59;;;;;;;26.67;16.80;;;;;;;;;;5012540;28;20209;-76
2021/08/22 03:48:25;;;;;;;21.43;17.17;;;;;;;;;;5008068;28;20217;-75
2021/08/22 03:50:50;;;;;;;25.50;17.13;;;;;;;;;;5011520;28;20464;-75
2021/08/22 03:53:15;;;;;;;25.48;17.63;;;;;;;;;;5010246;28;20182;-74
2021/08/22 03:55:43;;;;;;;28.17;18.60;;;;;;;;;;5013706;28;20250;-75
2021/08/22 03:58:09;;;;;;;24.35;18.73;;;;;;;;;;5010613;28;20456;-74
2021/08/22 04:00:34;;;;;;;27.10;19.23;;;;;;;;;;5010777;28;20207;-73
2021/08/22 04:02:59;;;;;;;27.52;19.48;;;;;;;;;;5008655;28;20462;-73
2021/08/22 04:05:24;;;;;;;32.67;21.85;;;;;;;;;;5009257;28;20194;-73
2021/08/22 04:07:51;;;;;;;31.05;20.42;;;;;;;;;;5011896;28;20214;-73
2021/08/22 04:10:16;;;;;;;28.00;20.08;;;;;;;;;;5012398;28;20202;-73
2021/08/22 04:12:42;;;;;;;37.17;23.23;;;;;;;;;;5008846;28;20178;-72
2021/08/22 04:15:07;;;;;;;32.42;21.23;;;;;;;;;;5011622;28;20183;-73
2021/08/22 04:17:32;;;;;;;32.50;22.38;;;;;;;;;;5010560;28;20175;-73
2021/08/22 04:19:58;;;;;;;32.85;23.33;;;;;;;;;;5008951;28;20274;-73
2021/08/22 04:22:23;;;;;;;33.10;22.33;;;;;;;;;;5008780;28;20179;-73
2021/08/22 04:24:48;;;;;;;31.33;23.48;;;;;;;;;;5006988;28;21382;-73
2021/08/22 04:27:13;;;;;;;42.10;24.42;;;;;;;;;;5004727;28;20653;-74
2021/08/22 04:29:39;;;;;;;39.85;25.05;;;;;;;;;;5011122;28;20713;-73
2021/08/22 04:32:05;;;;;;;37.42;25.02;;;;;;;;;;5008331;28;20204;-73
2021/08/22 04:34:30;;;;;;;39.42;25.08;;;;;;;;;;5011714;28;20179;-73
2021/08/22 04:36:55;;;;;;;39.33;24.95;;;;;;;;;;5010514;28;20183;-73
2021/08/22 04:39:20;;;;;;;34.40;25.07;;;;;;;;;;5009739;28;20198;-73
2021/08/22 04:41:46;;;;;;;38.88;25.35;;;;;;;;;;5010989;28;20464;-73
2021/08/22 04:44:12;;;;;;;39.78;26.38;;;;;;;;;;5011366;28;20182;-73
2021/08/22 04:46:37;;;;;;;43.55;26.95;;;;;;;;;;5011770;28;20256;-73
2021/08/22 04:49:02;;;;;;;42.97;26.50;;;;;;;;;;5010243;28;20202;-73
2021/08/22 04:51:27;;;;;;;40.25;27.55;;;;;;;;;;5009525;28;20816;-73
2021/08/22 04:53:52;;;;;;;46.10;28.53;;;;;;;;;;5010494;28;20175;-72
2021/08/22 04:56:17;;;;;;;48.20;29.48;;;;;;;;;;5011037;28;21155;-73
2021/08/22 04:58:43;;;;;;;43.55;28.77;;;;;;;;;;5009991;28;20736;-73
2021/08/22 05:01:08;;;;;;;42.00;27.35;;;;;;;;;;5009873;28;20190;-73
2021/08/22 05:03:33;;;;;;;45.15;30.13;;;;;;;;;;5004495;28;20230;-73
2021/08/22 05:05:58;;;;;;;45.97;28.85;;;;;;;;;;5006841;28;20218;-73
2021/08/22 05:08:24;;;;;;;47.08;29.90;;;;;;;;;;5008878;28;20671;-73
2021/08/22 05:10:49;;;;;;;41.92;27.20;;;;;;;;;;5009047;28;20206;-73
2021/08/22 05:13:15;;;;;;;46.28;30.55;;;;;;;;;;5009832;28;20174;-72
2021/08/22 05:15:41;;;;;;;46.25;29.88;;;;;;;;;;5008228;28;20618;-72
2021/08/22 05:18:06;;;;;;;48.42;29.70;;;;;;;;;;5008944;28;20206;-72
2021/08/22 05:20:32;;;;;;;45.60;29.58;;;;;;;;;;5006890;28;20187;-73
2021/08/22 05:22:57;;;;;;;43.90;29.97;;;;;;;;;;5007145;28;20183;-72
2021/08/22 05:25:22;;;;;;;46.13;29.80;;;;;;;;;;5006724;28;20424;-72
2021/08/22 05:27:47;;;;;;;44.95;29.88;;;;;;;;;;5011479;28;20217;-72
2021/08/22 05:30:12;;;;;;;37.33;28.80;;;;;;;;;;5007580;28;20236;-72
2021/08/22 05:32:38;;;;;;;42.30;29.17;;;;;;;;;;5008029;28;21419;-72
2021/08/22 05:35:03;;;;;;;43.83;31.02;;;;;;;;;;5008469;28;20479;-72
2021/08/22 05:37:30;;;;;;;38.67;28.17;;;;;;;;;;5011083;28;20179;-72
2021/08/22 05:39:55;;;;;;;38.25;28.23;;;;;;;;;;5010311;28;20637;-72
2021/08/22 05:42:20;;;;;;;34.90;27.45;;;;;;;;;;5009774;28;20262;-72
2021/08/22 05:44:45;;;;;;;41.50;28.30;;;;;;;;;;5009629;28;20210;-72
2021/08/22 05:47:10;;;;;;;38.07;27.23;;;;;;;;;;5009265;28;20421;-72
2021/08/22 05:49:39;;;;;;;38.23;27.10;;;;;;;;;;5009520;28;20456;-71
2021/08/22 05:52:05;;;;;;;37.80;25.40;;;;;;;;;;5007588;28;20420;-70
2021/08/22 05:54:31;;;;;;;33.53;25.08;;;;;;;;;;5010289;28;20163;-71
2021/08/22 05:56:56;;;;;;;33.87;25.63;;;;;;;;;;5010455;28;20649;-71
2021/08/22 05:59:21;;;;;;;39.73;26.83;;;;;;;;;;5008074;28;20440;-71
2021/08/22 06:01:46;;;;;;;36.60;26.23;;;;;;;;;;5008368;28;20436;-72
2021/08/22 06:04:11;;;;;;;37.13;26.00;;;;;;;;;;5006670;28;20446;-72
2021/08/22 06:06:38;;;;;;;35.10;24.02;;;;;;;;;;4998060;28;21025;-73
2021/08/22 06:09:03;;;;;;;34.15;23.80;;;;;;;;;;5006066;28;20222;-71
2021/08/22 06:11:29;;;;;;;31.87;23.43;;;;;;;;;;5008456;28;20609;-72
2021/08/22 06:13:54;;;;;;;29.45;23.98;;;;;;;;;;5009303;28;20424;-72
2021/08/22 06:16:20;;;;;;;28.97;22.53;;;;;;;;;;5010015;28;20182;-72
2021/08/22 06:18:46;;;;;;;29.35;22.27;;;;;;;;;;5010321;28;20476;-72
2021/08/22 06:21:11;;;;;;;30.23;20.93;;;;;;;;;;5010102;28;20664;-72
2021/08/22 06:23:36;;;;;;;26.73;21.57;;;;;;;;;;5007109;28;20437;-73
2021/08/22 06:26:01;;;;;;;29.42;21.60;;;;;;;;;;5005794;28;20909;-72
2021/08/22 06:28:26;;;;;;;24.23;19.90;;;;;;;;;;5009777;28;20272;-71
2021/08/22 06:30:52;;;;;;;26.73;20.75;;;;;;;;;;5009218;28;20555;-71
2021/08/22 06:33:17;;;;;;;22.80;18.27;;;;;;;;;;5000336;28;20187;-70
2021/08/22 06:35:42;;;;;;;28.80;19.98;;;;;;;;;;5005205;28;20370;-72
2021/08/22 06:38:07;;;;;;;21.73;16.93;;;;;;;;;;5013613;28;20742;-71
2021/08/22 06:40:32;;;;;;;20.73;17.17;;;;;;;;;;5008763;28;20436;-72
2021/08/22 06:42:57;;;;;;;24.13;16.20;;;;;;;;;;5008560;28;20671;-71
2021/08/22 06:45:23;;;;;;;22.23;15.98;;;;;;;;;;5010124;28;20405;-71
2021/08/22 06:47:53;;;;;;;21.02;15.40;;;;;;;;;;5008712;28;20215;-70
2021/08/22 06:50:19;;;;;;;19.00;15.95;;;;;;;;;;5004793;28;20210;-70
2021/08/22 06:52:44;;;;;;;22.67;15.55;;;;;;;;;;5008036;28;20180;-70
2021/08/22 06:55:09;;;;;;;25.33;15.13;;;;;;;;;;5010647;28;20182;-71
2021/08/22 06:57:34;;;;;;;19.98;14.82;;;;;;;;;;5010551;28;21355;-71
2021/08/22 07:00:00;;;;;;;18.77;14.70;;;;;;;;;;5009820;28;20649;-71
2021/08/22 07:02:25;;;;;;;19.58;15.05;;;;;;;;;;5011518;28;20427;-69
2021/08/22 07:04:50;;;;;;;22.70;15.47;;;;;;;;;;5011927;28;20195;-70
2021/08/22 07:07:15;;;;;;;23.77;17.45;;;;;;;;;;5012614;28;20498;-70
2021/08/22 07:09:40;;;;;;;22.17;18.00;;;;;;;;;;5013328;28;20200;-71
2021/08/22 07:12:06;;;;;;;23.60;18.65;;;;;;;;;;5012594;28;20447;-73
2021/08/22 07:14:31;;;;;;;28.60;20.00;;;;;;;;;;5012056;28;20175;-69
2021/08/22 07:16:56;;;;;;;23.73;19.83;;;;;;;;;;5012054;28;20237;-70
2021/08/22 07:19:21;;;;;;;24.87;19.63;;;;;;;;;;5013421;28;20195;-72
2021/08/22 07:21:47;;;;;;;23.07;19.70;;;;;;;;;;5010180;28;20475;-70
2021/08/22 07:24:12;;;;;;;24.10;18.40;;;;;;;;;;5010809;28;20432;-71
2021/08/22 07:26:37;;;;;;;24.47;19.47;;;;;;;;;;5013010;28;20210;-70
2021/08/22 07:29:03;;;;;;;25.90;20.05;;;;;;;;;;5011474;28;20835;-71
2021/08/22 07:31:28;;;;;;;27.13;19.48;;;;;;;;;;5014534;28;20191;-71
2021/08/22 07:33:54;;;;;;;22.73;19.13;;;;;;;;;;5006029;28;20168;-70
2021/08/22 07:36:19;;;;;;;26.42;20.98;;;;;;;;;;5004749;28;20183;-70
2021/08/22 07:38:44;;;;;;;23.73;19.63;;;;;;;;;;5008132;28;20253;-70
2021/08/22 07:41:09;;;;;;;23.63;19.98;;;;;;;;;;5010103;28;20187;-70
2021/08/22 07:43:34;;;;;;;25.97;19.13;;;;;;;;;;5010610;28;20334;-71
2021/08/22 07:46:00;;;;;;;23.45;18.27;;;;;;;;;;5008608;28;20849;-69
2021/08/22 07:48:25;;;;;;;20.92;16.83;;;;;;;;;;5005846;28;20572;-70
2021/08/22 07:50:50;;;;;;;19.52;16.65;;;;;;;;;;5011632;28;20199;-69
2021/08/22 07:53:17;;;;;;;22.70;18.15;;;;;;;;;;5013012;28;20217;-70
2021/08/22 07:55:43;;;;;;;26.55;19.60;;;;;;;;;;5013279;28;20679;-70
2021/08/22 07:58:08;;;;;;;19.23;15.77;;;;;;;;;;5012663;28;20203;-71
2021/08/22 08:00:33;;;;;;;22.27;17.45;;;;;;;;;;5011178;28;20183;-70
2021/08/22 08:02:59;;;;;;;20.23;17.50;;;;;;;;;;5012709;28;20175;-70
2021/08/22 08:05:24;;;;;;;19.27;16.90;;;;;;;;;;5012860;28;20211;-70
2021/08/22 08:07:49;;;;;;;24.37;19.07;;;;;;;;;;5016294;28;20801;-71
2021/08/22 08:10:14;;;;;;;22.23;17.93;;;;;;;;;;5012650;28;20452;-70
2021/08/22 08:12:40;;;;;;;21.75;17.95;;;;;;;;;;5018536;28;20431;-70
2021/08/22 08:15:08;;;;;;;21.05;18.17;;;;;;;;;;5019302;28;20241;-69
2021/08/22 08:17:33;;;;;;;20.27;18.00;;;;;;;;;;5012007;28;20179;-69
2021/08/22 08:19:58;;;;;;;20.65;16.10;;;;;;;;;;5012316;28;20616;-69
2021/08/22 08:22:23;;;;;;;19.83;16.53;;;;;;;;;;5012720;28;20179;-69
2021/08/22 08:24:49;;;;;;;18.53;16.10;;;;;;;;;;5012578;28;20404;-72
2021/08/22 08:27:14;;;;;;;17.02;14.65;;;;;;;;;;5012881;28;20467;-70
2021/08/22 08:29:39;;;;;;;19.17;14.73;;;;;;;;;;5053905;22;20229;-71
2021/08/22 08:32:04;;;;;;;16.03;14.40;;;;;;;;;;5050542;28;20938;-67
2021/08/22 08:34:29;;;;;;;20.45;14.82;;;;;;;;;;5047736;28;20406;-68
2021/08/22 08:36:55;;;;;;;16.13;14.43;;;;;;;;;;5041887;28;20260;-69
2021/08/22 08:39:20;;;;;;;15.00;13.07;;;;;;;;;;5039048;28;20434;-68
2021/08/22 08:41:45;;;;;;;17.77;13.43;;;;;;;;;;5036306;28;20495;-68
2021/08/22 08:44:13;;;;;;;15.05;13.50;;;;;;;;;;5030033;28;20407;-68
2021/08/22 08:46:51;;;;;;;14.98;12.68;;;;;;;;;;5028664;28;20664;-69
2021/08/22 08:49:31;;;;;;;16.75;11.95;;;;;;;;;;5021534;28;20285;-69
2021/08/22 08:52:12;;;;;;;16.27;11.50;;;;;;;;;;5035124;28;20166;-70
2021/08/22 08:54:38;;;;;;;13.93;12.23;;;;;;;;;;5036343;28;20176;-68
2021/08/22 08:57:03;;;;;;;13.77;12.43;;;;;;;;;;5036473;28;20617;-68
2021/08/22 08:59:28;;;;;;;16.08;12.25;;;;;;;;;;5030893;28;20202;-68
2021/08/22 09:01:56;;;;;;;12.97;11.50;;;;;;;;;;5035743;28;20175;-73
2021/08/22 09:04:27;;;;;;;12.38;11.07;;;;;;;;;;5032158;28;20410;-69
2021/08/22 09:06:52;;;;;;;17.08;13.82;;;;;;;;;;5035819;28;20675;-68
2021/08/22 09:09:36;;;;;;;14.23;12.65;;;;;;;;;;5031710;28;20229;-69
2021/08/22 09:12:20;;;;;;;13.35;11.88;;;;;;;;;;5020343;28;20198;-68
2021/08/22 09:14:45;;;;;;;12.43;11.10;;;;;;;;;;5025527;28;20205;-68
2021/08/22 09:17:29;;;;;;;14.90;12.52;;;;;;;;;;5034089;28;20227;-68
2021/08/22 09:20:12;;;;;;;13.48;11.93;;;;;;;;;;5031485;28;20672;-68
2021/08/22 09:22:38;;;;;;;15.35;13.00;;;;;;;;;;5026771;28;20174;-69
2021/08/22 09:25:22;;;;;;;14.05;12.13;;;;;;;;;;5031820;28;20171;-69
2021/08/22 09:28:05;;;;;;;16.42;11.82;;;;;;;;;;5032659;28;20186;-69
2021/08/22 09:30:30;;;;;;;13.48;10.80;;;;;;;;;;5031043;28;20286;-68
2021/08/22 09:33:14;;;;;;;12.70;11.27;;;;;;;;;;5030997;28;20261;-69
2021/08/22 09:35:58;;;;;;;11.77;9.93;;;;;;;;;;5025939;28;20233;-68
2021/08/22 09:38:23;;;;;;;11.68;10.43;;;;;;;;;;5023965;28;20197;-67
2021/08/22 09:41:01;;;;;;;11.97;9.77;;;;;;;;;;5028707;28;20182;-69
2021/08/22 09:43:45;;;;;;;11.90;10.70;;;;;;;;;;5020950;28;20423;-68
2021/08/22 09:46:29;;;;;;;12.27;11.02;;;;;;;;;;5028247;28;20185;-67
2021/08/22 09:49:15;;;;;;;14.32;11.63;;;;;;;;;;5029164;28;20233;-68
2021/08/22 09:51:58;;;;;;;15.75;12.13;;;;;;;;;;5025439;28;20683;-69
2021/08/22 09:54:42;;;;;;;15.18;12.63;;;;;;;;;;5027286;28;20189;-68
2021/08/22 09:57:13;;;;;;;15.82;13.15;;;;;;;;;;5030184;28;20315;-68
2021/08/22 09:59:44;;;;;;;15.63;14.00;;;;;;;;;;5030703;28;20236;-69
2021/08/22 10:02:15;;;;;;;16.45;14.80;;;;;;;;;;5031346;28;20178;-68
2021/08/22 10:04:40;;;;;;;14.15;12.80;;;;;;;;;;5025474;28;20173;-68
2021/08/22 10:07:11;;;;;;;14.80;13.30;;;;;;;;;;5031365;28;20261;-68
2021/08/22 10:09:39;;;;;;;13.43;12.02;;;;;;;;;;5030714;28;20481;-68
2021/08/22 10:12:04;;;;;;;13.88;11.40;;;;;;;;;;5030289;28;20606;-68
2021/08/22 10:14:30;;;;;;;13.37;11.17;;;;;;;;;;5030299;28;20178;-68
2021/08/22 10:16:56;;;;;;;12.50;11.15;;;;;;;;;;5014536;28;20419;-68
2021/08/22 10:19:22;;;;;;;11.73;10.13;;;;;;;;;;5028991;28;20205;-71
2021/08/22 10:22:06;;;;;;;10.43;9.48;;;;;;;;;;5031411;28;20178;-68
2021/08/22 10:24:37;;;;;;;9.88;8.98;;;;;;;;;;5029225;28;20177;-68
2021/08/22 10:27:09;;;;;;;10.25;8.48;;;;;;;;;;5029355;28;20667;-68
2021/08/22 10:29:35;;;;;;;9.10;8.13;;;;;;;;;;5027515;28;20205;-68
2021/08/22 10:32:02;;;;;;;8.30;7.55;;;;;;;;;;5014022;28;20187;-68
2021/08/22 10:34:27;;;;;;;8.23;7.43;;;;;;;;;;5019813;28;20755;-69
2021/08/22 10:36:53;;;;;;;9.43;8.43;;;;;;;;;;5024166;28;20222;-67
2021/08/22 10:39:22;;;;;;;9.65;7.85;;;;;;;;;;5030057;28;20615;-68
2021/08/22 10:41:47;;;;;;;10.60;8.88;;;;;;;;;;5012756;28;20186;-68
2021/08/22 10:44:31;;;;;;;10.35;9.07;;;;;;;;;;5033887;28;20186;-68
2021/08/22 10:46:57;;;;;;;10.23;9.07;;;;;;;;;;5041398;28;20182;-67
2021/08/22 10:49:42;;;;;;;10.67;9.60;;;;;;;;;;5030385;28;20198;-68
2021/08/22 10:52:20;;;;;;;9.63;8.07;;;;;;;;;;5028840;28;20947;-68
2021/08/22 10:55:05;;;;;;;8.70;7.80;;;;;;;;;;5039609;28;20182;-68
2021/08/22 10:57:43;;;;;;;9.60;8.52;;;;;;;;;;5033536;28;20178;-71
2021/08/22 11:00:22;;;;;;;8.93;8.02;;;;;;;;;;5023238;28;20256;-68
2021/08/22 11:02:48;;;;;;;9.43;8.52;;;;;;;;;;5026686;28;20356;-68
2021/08/22 11:05:17;;;;;;;11.90;8.73;;;;;;;;;;5012154;28;20193;-68
2021/08/22 11:07:43;;;;;;;8.88;7.93;;;;;;;;;;5030583;28;20178;-70
2021/08/22 11:10:15;;;;;;;9.70;7.40;;;;;;;;;;5027712;28;20194;-69
2021/08/22 11:12:40;;;;;;;9.05;7.88;;;;;;;;;;5030965;28;20170;-70
2021/08/22 11:15:06;;;;;;;9.98;7.72;;;;;;;;;;5029986;28;20185;-69
2021/08/22 11:17:32;;;;;;;2.97;2.70;;;;;;;;;;5032567;28;20185;-70
2021/08/22 11:20:13;;;;;;;2.42;2.22;;;;;;;;;;5028606;28;20281;-71
2021/08/22 11:22:38;;;;;;;2.67;2.38;;;;;;;;;;5031825;28;20574;-69
2021/08/22 11:25:04;;;;;;;3.33;2.47;;;;;;;;;;5033202;28;20182;-68
2021/08/22 11:27:29;;;;;;;3.15;2.10;;;;;;;;;;5035693;28;20268;-67
2021/08/22 11:29:57;;;;;;;3.20;1.63;;;;;;;;;;5031403;28;20237;-68
2021/08/22 11:32:23;;;;;;;2.05;1.63;;;;;;;;;;5039750;28;20176;-67
2021/08/22 11:34:48;;;;;;;2.50;1.58;;;;;;;;;;5032360;28;20175;-68
2021/08/22 11:37:14;;;;;;;1.80;1.50;;;;;;;;;;5029156;28;20217;-68
2021/08/22 11:39:39;;;;;;;1.52;1.27;;;;;;;;;;5029743;28;20624;-68
2021/08/22 11:42:05;;;;;;;1.35;1.23;;;;;;;;;;5034530;28;20556;-73
2021/08/22 11:44:30;;;;;;;2.25;1.23;;;;;;;;;;5028446;28;20248;-74
2021/08/22 11:46:57;;;;;;;2.07;1.20;;;;;;;;;;5034065;28;20182;-76
2021/08/22 11:49:22;;;;;;;4.80;1.40;;;;;;;;;;5032282;28;20464;-75
2021/08/22 11:51:51;;;;;;;2.72;1.38;;;;;;;;;;5028826;28;20210;-75
2021/08/22 11:54:17;;;;;;;1.10;1.00;;;;;;;;;;5016080;28;20174;-74
2021/08/22 11:56:43;;;;;;;1.23;1.08;;;;;;;;;;5031544;28;20167;-75
2021/08/22 11:59:27;;;;;;;1.65;1.00;;;;;;;;;;5036677;28;20220;-75
2021/08/22 12:02:11;;;;;;;1.75;1.30;;;;;;;;;;5028163;28;20186;-75
2021/08/22 12:04:36;;;;;;;2.38;1.40;;;;;;;;;;5026393;28;20205;-75
2021/08/22 12:07:01;;;;;;;1.40;1.30;;;;;;;;;;5031158;28;20208;-75
2021/08/22 12:09:27;;;;;;;2.20;1.50;;;;;;;;;;5031850;28;20916;-76
2021/08/22 12:11:52;;;;;;;1.27;1.00;;;;;;;;;;5013007;28;20214;-76
2021/08/22 12:14:19;;;;;;;2.85;2.08;;;;;;;;;;5033236;28;20166;-75
2021/08/22 12:16:54;;;;;;;1.58;1.20;;;;;;;;;;5028581;28;20198;-76
2021/08/22 12:19:20;;;;;;;1.95;1.58;;;;;;;;;;5014547;28;20193;-74
2021/08/22 12:21:46;;;;;;;1.65;1.30;;;;;;;;;;5031807;28;20183;-77
2021/08/22 12:24:19;;;;;;;2.17;1.75;;;;;;;;;;5031146;28;20186;-77
2021/08/22 12:26:48;;;;;;;1.70;1.60;;;;;;;;;;5037676;28;20186;-77
2021/08/22 12:29:14;;;;;;;2.10;1.90;;;;;;;;;;5029976;28;20210;-75
2021/08/22 12:31:40;;;;;;;2.55;1.80;;;;;;;;;;5030061;28;20255;-76
2021/08/22 12:34:09;;;;;;;1.75;1.45;;;;;;;;;;5028631;28;20201;-76
2021/08/22 12:36:36;;;;;;;2.63;1.70;;;;;;;;;;5029564;28;20662;-77
2021/08/22 12:39:03;;;;;;;2.25;1.58;;;;;;;;;;5011626;28;20240;-76
2021/08/22 12:41:44;;;;;;;3.00;1.67;;;;;;;;;;5034754;28;20262;-77
2021/08/22 12:44:17;;;;;;;3.08;1.85;;;;;;;;;;5016470;28;20174;-77
2021/08/22 12:46:43;;;;;;;1.80;1.45;;;;;;;;;;5031240;28;20224;-76
2021/08/22 12:49:09;;;;;;;2.50;1.75;;;;;;;;;;5023052;28;20209;-75
2021/08/22 12:51:36;;;;;;;2.72;2.05;;;;;;;;;;5027643;28;20637;-75
2021/08/22 12:54:02;;;;;;;3.15;2.45;;;;;;;;;;5031776;28;20528;-76
2021/08/22 12:56:27;;;;;;;4.05;2.15;;;;;;;;;;5037030;28;20304;-76
2021/08/22 12:58:53;;;;;;;2.50;1.85;;;;;;;;;;5031374;28;20281;-75
2021/08/22 13:01:19;;;;;;;2.63;2.42;;;;;;;;;;5029159;28;20182;-76
2021/08/22 13:03:45;;;;;;;4.15;2.40;;;;;;;;;;5027920;28;20570;-74
2021/08/22 13:06:10;;;;;;;3.88;2.75;;;;;;;;;;5026070;28;20189;-76
2021/08/22 13:08:35;;;;;;;2.85;2.38;;;;;;;;;;5032322;28;20194;-76
2021/08/22 13:11:00;;;;;;;2.73;2.53;;;;;;;;;;5036472;28;20236;-76
2021/08/22 13:13:25;;;;;;;3.00;2.70;;;;;;;;;;5028288;28;20430;-75
2021/08/22 13:15:51;;;;;;;4.57;2.83;;;;;;;;;;5023944;28;20221;-75
2021/08/22 13:18:16;;;;;;;3.30;2.93;;;;;;;;;;5030611;28;20306;-75
2021/08/22 13:20:41;;;;;;;3.30;2.90;;;;;;;;;;5030380;28;20436;-76
2021/08/22 13:23:06;;;;;;;3.85;2.80;;;;;;;;;;5036988;28;20180;-75
2021/08/22 13:25:32;;;;;;;3.17;2.73;;;;;;;;;;5031454;28;20174;-74
2021/08/22 13:27:58;;;;;;;2.63;2.42;;;;;;;;;;5036260;28;20430;-75
2021/08/22 13:30:23;;;;;;;4.38;3.75;;;;;;;;;;5028726;28;20256;-74
2021/08/22 13:32:49;;;;;;;4.55;3.03;;;;;;;;;;5028997;28;20182;-75
2021/08/22 13:35:14;;;;;;;3.08;2.78;;;;;;;;;;5022388;28;20907;-76
2021/08/22 13:37:39;;;;;;;3.15;2.63;;;;;;;;;;5024278;28;20237;-73
2021/08/22 13:40:05;;;;;;;2.97;2.67;;;;;;;;;;5011678;28;20213;-73
2021/08/22 13:42:30;;;;;;;4.40;3.30;;;;;;;;;;5032683;28;20485;-71
2021/08/22 13:44:55;;;;;;;4.33;3.50;;;;;;;;;;5031185;28;20186;-72
2021/08/22 13:47:20;;;;;;;4.43;3.60;;;;;;;;;;5033173;28;20982;-71
2021/08/22 13:49:45;;;;;;;5.13;3.60;;;;;;;;;;5030724;28;20523;-74
2021/08/22 13:52:11;;;;;;;3.88;3.58;;;;;;;;;;5027608;28;20427;-69
2021/08/22 13:54:36;;;;;;;4.80;2.88;;;;;;;;;;5020491;28;20192;-69
2021/08/22 13:57:02;;;;;;;4.90;2.80;;;;;;;;;;5029077;28;20194;-71
2021/08/22 13:59:27;;;;;;;3.05;2.78;;;;;;;;;;5030214;28;20475;-69
2021/08/22 14:01:52;;;;;;;3.13;2.83;;;;;;;;;;5032320;28;20178;-70
2021/08/22 14:04:18;;;;;;;4.32;3.35;;;;;;;;;;5030133;28;20178;-70
2021/08/22 14:06:43;;;;;;;3.58;3.15;;;;;;;;;;5023741;28;20175;-71
2021/08/22 14:09:08;;;;;;;3.97;3.40;;;;;;;;;;5034161;28;20847;-71
2021/08/22 14:11:33;;;;;;;3.92;3.50;;;;;;;;;;5029621;28;20214;-68
2021/08/22 14:13:59;;;;;;;3.07;2.43;;;;;;;;;;5037309;28;20683;-68
2021/08/22 14:16:24;;;;;;;4.20;2.63;;;;;;;;;;5031663;28;20170;-68
2021/08/22 14:18:51;;;;;;;3.22;2.90;;;;;;;;;;5036585;28;20194;-70
2021/08/22 14:21:16;;;;;;;2.70;2.50;;;;;;;;;;5035531;28;20228;-69
2021/08/22 14:23:41;;;;;;;6.20;2.83;;;;;;;;;;5031804;28;20245;-69